KITH/ITH METAR and TAF weather

Enter ICAO airport designator
Station Type Date Time Source
KITH METAR 2021/09/24 02:56 UTC NOAA

KITH 240256Z AUTO 20009KT 10SM CLR 13/09 A2996 RMK AO2 SLP142 T01280089 51015


Station Type Date Time Source
KITH Decoded METAR 2021/09/24 02:56 UTC NOAA

Ithaca, Ithaca Tompkins Regional Airport, NY, United States (KITH) 42-29-27N 076-27-30W
Sep 23, 2021 - 10:56 PM EDT / 2021.09.24 0256 UTC
Wind: from the SSW (200 degrees) at 10 MPH (9 KT):0
Visibility: 10 mile(s):0
Sky conditions: clear
Temperature: 55.0 F (12.8 C)
Dew Point: 48.0 F (8.9 C)
Relative Humidity: 77%
Pressure (altimeter): 29.96 in. Hg (1014 hPa)
Pressure tendency: 0.04 inches (1.5 hPa) higher than three hours ago
ob: KITH 240256Z AUTO 20009KT 10SM CLR 13/09 A2996 RMK AO2 SLP142 T01280089 51015
cycle: 3

Station Type Date Time Source
KITH TAF 2021/09/23 22:30 UTC NOAA

TAF
AMD KITH 232227Z 2322/2418 18006KT 6SM BR BKN035
FM240000 20009KT P6SM SCT040
FM241600 23010G17KT P6SM FEW080

Example: see airport list